Terminal Aerodrome Forecast
Issued by NWS

Home | Current Version | Previous Version | Graphics & Text | Print | Product List | Glossary On
Versions: 1 2 3 4 5 6 7 8 9 10 11 12 13 14 15 16 17 18 19 20 21 22 23 24 25 26 27 28 29 30 31 32 33 34 35 36 37 38 39 40 41 42 43 44 45 46 47 48 49 50
000
FTUS43 KGRB 181900 AAA
TAFRHI
TAF AMD
KRHI 181957Z 1820/1918 17005KT 6SM BR OVC005
      TEMPO 1820/1824 3SM TSRA BR BKN012CB
     FM190000 VRB03KT 5SM -TSRA BR BKN018CB
     FM190600 VRB03KT 4SM -SHRA BR BKN005
      TEMPO 1906/1910 1SM TSRA BR OVC004CB
     FM191400 28005KT 6SM BR VCSH SCT005 BKN022=

USA.gov is the U.S. government's official web portal to all federal, state and local government web resources and services.